sensor_id;sensor_type;location;lat;lon;timestamp;P1;P4;P2;P0;N10;N4;N25;N1;N05;TS
59652;SPS30;45954;49.768;8.636;2023-10-08T00:02:45;17.10;14.69;9.88;3.76;30.89;30.67;29.56;23.31;11.69;1.13
59652;SPS30;45954;49.768;8.636;2023-10-08T00:05:11;26.71;22.94;15.43;5.85;48.14;47.80;46.06;36.30;18.15;1.15
59652;SPS30;45954;49.768;8.636;2023-10-08T00:07:41;21.16;18.17;12.19;4.59;37.77;37.50;36.12;28.36;14.02;1.16
59652;SPS30;45954;49.768;8.636;2023-10-08T00:10:08;20.39;17.53;11.82;4.55;37.38;37.12;35.80;28.38;14.49;1.13
59652;SPS30;45954;49.768;8.636;2023-10-08T00:12:34;17.06;14.66;9.88;3.79;31.12;30.90;29.80;23.58;11.97;1.15
59652;SPS30;45954;49.768;8.636;2023-10-08T00:15:00;16.54;14.21;9.56;3.64;29.94;29.72;28.65;22.61;11.37;1.15
59652;SPS30;45954;49.768;8.636;2023-10-08T00:17:26;16.46;14.17;9.58;3.74;30.69;30.48;29.42;23.47;12.21;1.12
59652;SPS30;45954;49.768;8.636;2023-10-08T00:19:52;16.37;14.10;9.58;3.80;31.18;30.97;29.93;24.04;12.80;1.10
59652;SPS30;45954;49.768;8.636;2023-10-08T00:22:18;13.80;11.90;8.09;3.23;26.52;26.35;25.47;20.52;11.02;1.09
59652;SPS30;45954;49.768;8.636;2023-10-08T00:24:45;21.43;18.49;12.63;5.13;42.03;41.76;40.40;32.77;17.96;1.09
59652;SPS30;45954;49.768;8.636;2023-10-08T00:27:12;18.61;16.03;10.90;4.33;35.56;35.33;34.14;27.46;14.67;1.11
59652;SPS30;45954;49.768;8.636;2023-10-08T00:29:40;19.56;16.86;11.47;4.58;37.58;37.33;36.09;29.07;15.61;1.10
59652;SPS30;45954;49.768;8.636;2023-10-08T00:32:08;17.86;15.40;10.49;4.21;34.56;34.34;33.20;26.81;14.50;1.10
59652;SPS30;45954;49.768;8.636;2023-10-08T00:34:43;19.14;16.50;11.23;4.49;36.85;36.61;35.39;28.53;15.36;1.12
59652;SPS30;45954;49.768;8.636;2023-10-08T00:37:09;18.47;15.91;10.79;4.26;34.94;34.71;33.52;26.87;14.20;1.13
59652;SPS30;45954;49.768;8.636;2023-10-08T00:39:40;22.46;19.31;13.04;5.04;41.39;41.10;39.65;31.49;16.17;1.15
59652;SPS30;45954;49.768;8.636;2023-10-08T00:42:07;20.30;17.43;11.71;4.43;36.45;36.18;34.86;27.43;13.65;1.16
59652;SPS30;45954;49.768;8.636;2023-10-08T00:44:36;18.38;15.79;10.64;4.06;33.40;33.17;31.98;25.27;12.77;1.15
59652;SPS30;45954;49.768;8.636;2023-10-08T00:47:20;13.75;11.82;7.95;3.03;24.91;24.73;23.84;18.82;9.47;1.14
59652;SPS30;45954;49.768;8.636;2023-10-08T00:49:51;16.12;13.86;9.34;3.59;29.49;29.28;28.24;22.37;11.38;1.14
59652;SPS30;45954;49.768;8.636;2023-10-08T00:52:33;15.63;13.45;9.09;3.54;29.08;28.88;27.88;22.22;11.53;1.12
59652;SPS30;45954;49.768;8.636;2023-10-08T00:55:10;17.98;15.47;10.46;4.06;33.37;33.14;31.98;25.47;13.18;1.13
59652;SPS30;45954;49.768;8.636;2023-10-08T00:57:55;15.03;12.92;8.71;3.35;27.53;27.33;26.36;20.89;10.65;1.12
59652;SPS30;45954;49.768;8.636;2023-10-08T01:00:27;15.50;13.35;9.07;3.60;29.53;29.34;28.35;22.77;12.13;1.12
59652;SPS30;45954;49.768;8.636;2023-10-08T01:03:02;15.58;13.42;9.11;3.61;29.66;29.46;28.47;22.86;12.16;1.13
59652;SPS30;45954;49.768;8.636;2023-10-08T01:05:40;18.06;15.56;10.56;4.18;34.34;34.11;32.95;26.46;14.06;1.11
59652;SPS30;45954;49.768;8.636;2023-10-08T01:08:12;16.44;14.13;9.53;3.66;30.09;29.88;28.81;22.83;11.62;1.14
59652;SPS30;45954;49.768;8.636;2023-10-08T01:10:43;19.55;16.78;11.26;4.22;34.74;34.49;33.21;26.03;12.79;1.16
59652;SPS30;45954;49.768;8.636;2023-10-08T01:13:12;20.42;17.51;11.70;4.31;35.51;35.24;33.90;26.36;12.58;1.16
59652;SPS30;45954;49.768;8.636;2023-10-08T01:15:46;20.18;17.31;11.59;4.32;35.53;35.27;33.95;26.52;12.87;1.16
59652;SPS30;45954;49.768;8.636;2023-10-08T01:18:15;19.56;16.76;11.18;4.08;33.60;33.35;32.06;24.81;11.64;1.17
59652;SPS30;45954;49.768;8.636;2023-10-08T01:20:44;23.35;20.02;13.37;4.91;40.47;40.17;38.63;29.99;14.25;1.19
59652;SPS30;45954;49.768;8.636;2023-10-08T01:23:13;20.70;17.78;11.96;4.54;37.30;37.03;35.69;28.12;14.05;1.14
59652;SPS30;45954;49.768;8.636;2023-10-08T01:25:39;18.99;16.29;10.90;4.05;33.33;33.09;31.84;24.84;12.01;1.16
59652;SPS30;45954;49.768;8.636;2023-10-08T01:28:07;23.28;19.99;13.44;5.09;41.85;41.55;40.04;31.52;15.71;1.14
59652;SPS30;45954;49.768;8.636;2023-10-08T01:30:53;14.97;12.87;8.66;3.29;27.07;26.88;25.91;20.44;10.26;1.14
59652;SPS30;45954;49.768;8.636;2023-10-08T01:33:23;22.83;19.59;13.13;4.91;40.42;40.13;38.63;30.24;14.79;1.16
59652;SPS30;45954;49.768;8.636;2023-10-08T01:35:53;21.56;18.51;12.41;4.65;38.24;37.97;36.56;28.63;14.03;1.16
59652;SPS30;45954;49.768;8.636;2023-10-08T01:38:20;15.80;13.57;9.10;3.42;28.15;27.94;26.91;21.12;10.40;1.15
59652;SPS30;45954;49.768;8.636;2023-10-08T01:40:49;22.32;19.16;12.86;4.83;39.74;39.45;38.00;29.81;14.68;1.14
59652;SPS30;45954;49.768;8.636;2023-10-08T01:43:16;22.52;19.35;13.04;5.00;41.10;40.81;39.35;31.15;15.81;1.14
59652;SPS30;45954;49.768;8.636;2023-10-08T01:45:43;23.11;19.90;13.48;5.30;43.48;43.19;41.71;33.36;17.53;1.11
59652;SPS30;45954;49.768;8.636;2023-10-08T01:48:14;18.80;16.19;10.98;4.32;35.50;35.26;34.05;27.28;14.39;1.11
59652;SPS30;45954;49.768;8.636;2023-10-08T01:50:48;15.70;13.55;9.26;3.77;30.92;30.73;29.73;24.15;13.28;1.09
59652;SPS30;45954;49.768;8.636;2023-10-08T01:53:15;18.18;15.69;10.71;4.33;35.52;35.30;34.14;27.66;15.10;1.08
59652;SPS30;45954;49.768;8.636;2023-10-08T01:55:41;23.15;19.95;13.57;5.41;44.40;44.11;42.63;34.32;18.40;1.10
59652;SPS30;45954;49.768;8.636;2023-10-08T01:58:14;17.35;14.94;10.11;3.96;32.52;32.30;31.19;24.91;13.03;1.10
59652;SPS30;45954;49.768;8.636;2023-10-08T02:00:43;16.79;14.48;9.86;3.96;32.45;32.24;31.17;25.16;13.59;1.10
59652;SPS30;45954;49.768;8.636;2023-10-08T02:03:13;15.78;13.60;9.25;3.69;30.26;30.06;29.05;23.39;12.53;1.11
59652;SPS30;45954;49.768;8.636;2023-10-08T02:05:46;23.44;20.12;13.50;5.06;41.65;41.35;39.81;31.20;15.32;1.19
59652;SPS30;45954;49.768;8.636;2023-10-08T02:08:12;19.03;16.34;10.98;4.14;34.09;33.85;32.61;25.63;12.72;1.17
59652;SPS30;45954;49.768;8.636;2023-10-08T02:10:42;23.39;20.13;13.63;5.33;43.79;43.49;41.99;33.54;17.53;1.12
59652;SPS30;45954;49.768;8.636;2023-10-08T02:13:12;16.77;14.47;9.89;4.03;33.03;32.82;31.76;25.80;14.20;1.07
59652;SPS30;45954;49.768;8.636;2023-10-08T02:15:47;18.46;15.93;10.87;4.41;36.15;35.92;34.75;28.17;15.42;1.07
59652;SPS30;45954;49.768;8.636;2023-10-08T02:18:17;18.14;15.66;10.71;4.38;35.88;35.65;34.51;28.07;15.51;1.07
59652;SPS30;45954;49.768;8.636;2023-10-08T02:20:44;19.03;16.43;11.24;4.60;37.67;37.43;36.23;29.47;16.30;1.07
59652;SPS30;45954;49.768;8.636;2023-10-08T02:23:10;14.45;12.46;8.50;3.43;28.09;27.91;26.99;21.83;11.86;1.10
59652;SPS30;45954;49.768;8.636;2023-10-08T02:25:37;26.36;22.66;15.28;5.88;48.31;47.97;46.26;36.67;18.71;1.16
59652;SPS30;45954;49.768;8.636;2023-10-08T02:28:05;23.23;19.96;13.44;5.13;42.14;41.84;40.34;31.86;16.06;1.12
59652;SPS30;45954;49.768;8.636;2023-10-08T02:30:38;15.76;13.60;9.28;3.77;30.89;30.69;29.69;24.08;13.19;1.08
59652;SPS30;45954;49.768;8.636;2023-10-08T02:33:07;16.36;14.10;9.59;3.82;31.37;31.16;30.12;24.25;12.99;1.11
59652;SPS30;45954;49.768;8.636;2023-10-08T02:35:43;19.05;16.41;11.13;4.39;36.06;35.82;34.60;27.74;14.67;1.11
59652;SPS30;45954;49.768;8.636;2023-10-08T02:38:10;19.70;17.00;11.63;4.75;38.96;38.71;37.47;30.47;16.84;1.09
59652;SPS30;45954;49.768;8.636;2023-10-08T02:40:41;20.39;17.59;12.02;4.89;40.06;39.80;38.51;31.25;17.16;1.12
59652;SPS30;45954;49.768;8.636;2023-10-08T02:43:13;18.57;15.98;10.83;4.24;34.84;34.60;33.41;26.70;13.98;1.14
59652;SPS30;45954;49.768;8.636;2023-10-08T02:45:40;25.68;22.07;14.85;5.66;46.55;46.22;44.56;35.18;17.71;1.17
59652;SPS30;45954;49.768;8.636;2023-10-08T02:48:09;23.22;19.96;13.44;5.14;42.27;41.97;40.47;32.00;16.19;1.14
59652;SPS30;45954;49.768;8.636;2023-10-08T02:50:38;18.84;16.24;11.05;4.42;36.25;36.02;34.82;28.06;15.10;1.08
59652;SPS30;45954;49.768;8.636;2023-10-08T02:53:05;16.07;13.86;9.45;3.80;31.17;30.97;29.95;24.20;13.12;1.10
59652;SPS30;45954;49.768;8.636;2023-10-08T02:55:45;17.24;14.86;10.12;4.05;33.26;33.04;31.94;25.77;13.89;1.11
59652;SPS30;45954;49.768;8.636;2023-10-08T02:58:12;17.54;15.11;10.28;4.10;33.64;33.42;32.30;26.01;13.95;1.11
59652;SPS30;45954;49.768;8.636;2023-10-08T03:00:45;16.04;13.80;9.35;3.67;30.12;29.91;28.88;23.09;12.11;1.14
59652;SPS30;45954;49.768;8.636;2023-10-08T03:03:13;22.01;18.94;12.81;4.99;40.98;40.70;39.28;31.31;16.26;1.12
59652;SPS30;45954;49.768;8.636;2023-10-08T03:05:44;22.61;19.48;13.24;5.26;43.18;42.90;41.45;33.33;17.79;1.10
59652;SPS30;45954;49.768;8.636;2023-10-08T03:08:12;22.27;19.17;12.99;5.09;41.83;41.55;40.12;32.08;16.83;1.12
59652;SPS30;45954;49.768;8.636;2023-10-08T03:10:46;18.61;16.03;10.89;4.33;35.54;35.31;34.12;27.43;14.65;1.11
59652;SPS30;45954;49.768;8.636;2023-10-08T03:13:23;15.69;13.50;9.14;3.57;29.28;29.09;28.08;22.40;11.67;1.12
59652;SPS30;45954;49.768;8.636;2023-10-08T03:15:51;25.05;21.56;14.61;5.73;47.04;46.72;45.11;36.07;18.91;1.12
59652;SPS30;45954;49.768;8.636;2023-10-08T03:18:33;14.64;12.59;8.49;3.26;26.83;26.64;25.70;20.37;10.39;1.14
59652;SPS30;45954;49.768;8.636;2023-10-08T03:21:07;16.32;14.07;9.57;3.83;31.45;31.25;30.21;24.36;13.13;1.08
59652;SPS30;45954;49.768;8.636;2023-10-08T03:23:46;13.64;11.77;8.02;3.24;26.54;26.37;25.50;20.63;11.22;1.08
59652;SPS30;45954;49.768;8.636;2023-10-08T03:26:13;18.23;15.70;10.67;4.23;34.72;34.48;33.32;26.76;14.24;1.10
59652;SPS30;45954;49.768;8.636;2023-10-08T03:28:58;14.34;12.40;8.52;3.54;29.02;28.85;27.95;22.89;12.91;1.05
59652;SPS30;45954;49.768;8.636;2023-10-08T03:31:30;15.85;13.73;9.49;4.05;33.14;32.95;31.96;26.44;15.33;1.04
59652;SPS30;45954;49.768;8.636;2023-10-08T03:34:14;15.35;13.25;9.05;3.68;30.20;30.01;29.04;23.57;12.96;1.08
59652;SPS30;45954;49.768;8.636;2023-10-08T03:36:43;21.13;18.16;12.25;4.71;38.70;38.43;37.06;29.37;14.97;1.14
59652;SPS30;45954;49.768;8.636;2023-10-08T03:39:14;20.20;17.39;11.80;4.66;38.22;37.96;36.67;29.39;15.54;1.10
59652;SPS30;45954;49.768;8.636;2023-10-08T03:41:48;19.52;16.85;11.51;4.68;38.35;38.11;36.88;29.92;16.43;1.07
59652;SPS30;45954;49.768;8.636;2023-10-08T03:44:33;17.01;14.64;9.90;3.85;31.64;31.42;30.32;24.16;12.53;1.13
59652;SPS30;45954;49.768;8.636;2023-10-08T03:47:02;20.65;17.76;11.97;4.60;37.83;37.56;36.23;28.71;14.63;1.13
59652;SPS30;45954;49.768;8.636;2023-10-08T03:49:35;15.57;13.40;9.05;3.51;28.85;28.65;27.65;22.00;11.37;1.13
59652;SPS30;45954;49.768;8.636;2023-10-08T03:52:09;15.15;13.06;8.88;3.53;28.99;28.80;27.83;22.39;11.97;1.10
59652;SPS30;45954;49.768;8.636;2023-10-08T03:54:36;18.41;15.85;10.74;4.23;34.71;34.47;33.29;26.65;14.03;1.12
59652;SPS30;45954;49.768;8.636;2023-10-08T03:57:07;16.15;13.89;9.39;3.65;29.98;29.77;28.73;22.88;11.84;1.12
59652;SPS30;45954;49.768;8.636;2023-10-08T03:59:40;14.86;12.80;8.70;3.47;28.43;28.25;27.30;21.96;11.75;1.11
59652;SPS30;45954;49.768;8.636;2023-10-08T04:02:07;21.85;18.82;12.79;5.07;41.64;41.36;39.96;32.11;17.10;1.13
59652;SPS30;45954;49.768;8.636;2023-10-08T04:04:39;18.14;15.63;10.62;4.22;34.65;34.42;33.26;26.74;14.28;1.12
59652;SPS30;45954;49.768;8.636;2023-10-08T04:07:22;16.96;14.58;9.82;3.75;30.84;30.63;29.53;23.34;11.80;1.16
59652;SPS30;45954;49.768;8.636;2023-10-08T04:10:19;15.29;13.20;9.03;3.69;30.20;30.01;29.04;23.61;13.02;1.11
59652;SPS30;45954;49.768;8.636;2023-10-08T04:12:59;14.66;12.63;8.59;3.42;28.08;27.90;26.96;21.70;11.62;1.12
59652;SPS30;45954;49.768;8.636;2023-10-08T04:15:25;16.11;13.86;9.37;3.64;29.91;29.71;28.67;22.83;11.83;1.13
59652;SPS30;45954;49.768;8.636;2023-10-08T04:17:52;25.61;22.03;14.90;5.79;47.58;47.25;45.60;36.32;18.82;1.14
59652;SPS30;45954;49.768;8.636;2023-10-08T04:20:18;14.89;12.83;8.73;3.49;28.59;28.41;27.46;22.12;11.87;1.10
59652;SPS30;45954;49.768;8.636;2023-10-08T04:23:02;14.67;12.64;8.60;3.43;28.17;27.98;27.05;21.79;11.69;1.12
59652;SPS30;45954;49.768;8.636;2023-10-08T04:25:39;21.07;18.14;12.31;4.86;39.86;39.59;38.24;30.65;16.20;1.13
59652;SPS30;45954;49.768;8.636;2023-10-08T04:28:08;19.20;16.56;11.28;4.53;37.13;36.89;35.67;28.80;15.57;1.11
59652;SPS30;45954;49.768;8.636;2023-10-08T04:30:39;14.90;12.87;8.83;3.66;29.94;29.76;28.82;23.56;13.21;1.08
59652;SPS30;45954;49.768;8.636;2023-10-08T04:33:07;20.35;17.55;11.97;4.83;39.60;39.34;38.05;30.78;16.74;1.12
59652;SPS30;45954;49.768;8.636;2023-10-08T04:35:37;22.37;19.22;12.95;4.96;40.76;40.48;39.03;30.88;15.65;1.14
59652;SPS30;45954;49.768;8.636;2023-10-08T04:38:22;16.38;14.13;9.64;3.91;32.04;31.84;30.80;24.96;13.65;1.06
59652;SPS30;45954;49.768;8.636;2023-10-08T04:40:51;19.54;16.91;11.66;4.92;40.30;40.06;38.84;32.00;18.35;1.03
59652;SPS30;45954;49.768;8.636;2023-10-08T04:43:19;16.18;13.97;9.56;3.91;32.01;31.81;30.79;25.04;13.83;1.06
59652;SPS30;45954;49.768;8.636;2023-10-08T04:45:53;16.57;14.26;9.66;3.79;31.14;30.93;29.87;23.89;12.54;1.09
59652;SPS30;45954;49.768;8.636;2023-10-08T04:48:22;22.47;19.33;13.07;5.08;41.75;41.47;40.02;31.88;16.52;1.12
59652;SPS30;45954;49.768;8.636;2023-10-08T04:50:50;21.93;18.93;12.94;5.27;43.17;42.89;41.51;33.70;18.54;1.08
59652;SPS30;45954;49.768;8.636;2023-10-08T04:53:27;13.71;11.87;8.19;3.47;28.35;28.19;27.33;22.53;12.95;1.04
59652;SPS30;45954;49.768;8.636;2023-10-08T04:56:02;17.53;15.13;10.35;4.23;34.69;34.47;33.37;27.14;15.00;1.07
59652;SPS30;45954;49.768;8.636;2023-10-08T04:58:31;19.71;17.00;11.61;4.71;38.59;38.34;37.10;30.07;16.46;1.09
59652;SPS30;45954;49.768;8.636;2023-10-08T05:01:05;21.97;18.93;12.87;5.12;42.01;41.73;40.33;32.44;17.33;1.13
59652;SPS30;45954;49.768;8.636;2023-10-08T05:03:52;17.29;14.87;10.05;3.90;32.01;31.79;30.67;24.40;12.59;1.14
59652;SPS30;45954;49.768;8.636;2023-10-08T05:06:32;14.67;12.63;8.54;3.34;27.40;27.21;26.27;20.96;10.92;1.12
59652;SPS30;45954;49.768;8.636;2023-10-08T05:09:00;17.09;14.76;10.12;4.16;34.12;33.90;32.83;26.77;14.92;1.09
59652;SPS30;45954;49.768;8.636;2023-10-08T05:11:46;15.06;13.07;9.08;3.95;32.28;32.10;31.18;25.97;15.36;1.04
59652;SPS30;45954;49.768;8.636;2023-10-08T05:14:17;17.37;15.08;10.51;4.62;37.76;37.55;36.49;30.52;18.24;1.03
59652;SPS30;45954;49.768;8.636;2023-10-08T05:17:16;15.64;13.51;9.27;3.83;31.36;31.17;30.18;24.65;13.79;1.07
59652;SPS30;45954;49.768;8.636;2023-10-08T05:19:44;18.17;15.71;10.80;4.51;36.94;36.71;35.58;29.18;16.53;1.07
59652;SPS30;45954;49.768;8.636;2023-10-08T05:22:14;16.49;14.24;9.77;4.04;33.05;32.85;31.81;25.98;14.54;1.08
59652;SPS30;45954;49.768;8.636;2023-10-08T05:24:54;18.85;16.30;11.20;4.67;38.22;37.99;36.81;30.17;17.05;1.07
59652;SPS30;45954;49.768;8.636;2023-10-08T05:27:41;13.65;11.85;8.26;3.63;29.65;29.48;28.65;23.96;14.31;1.03
59652;SPS30;45954;49.768;8.636;2023-10-08T05:33:19;13.77;11.93;8.25;3.53;28.89;28.72;27.87;23.07;13.42;1.06
59652;SPS30;45954;49.768;8.636;2023-10-08T05:35:51;17.60;15.20;10.41;4.28;35.05;34.83;33.73;27.49;15.28;1.10
59652;SPS30;45954;49.768;8.636;2023-10-08T05:38:36;14.51;12.55;8.64;3.63;29.69;29.51;28.61;23.51;13.39;1.08
59652;SPS30;45954;49.768;8.636;2023-10-08T05:41:14;12.81;11.09;7.66;3.25;26.63;26.47;25.67;21.20;12.24;1.08
59652;SPS30;45954;49.768;8.636;2023-10-08T05:43:53;13.08;11.31;7.79;3.27;26.76;26.60;25.79;21.19;12.07;1.08
59652;SPS30;45954;49.768;8.636;2023-10-08T05:46:38;15.00;12.95;8.85;3.61;29.57;29.39;28.44;23.10;12.72;1.07
59652;SPS30;45954;49.768;8.636;2023-10-08T05:49:19;16.45;14.19;9.70;3.95;32.35;32.14;31.10;25.25;13.88;1.07
59652;SPS30;45954;49.768;8.636;2023-10-08T05:51:57;12.98;11.21;7.69;3.19;26.09;25.93;25.11;20.53;11.51;1.07
59652;SPS30;45954;49.768;8.636;2023-10-08T05:54:29;16.92;14.61;10.00;4.09;33.54;33.33;32.26;26.25;14.53;1.08
59652;SPS30;45954;49.768;8.636;2023-10-08T05:59:39;16.17;13.95;9.52;3.85;31.55;31.35;30.32;24.55;13.39;1.08
59652;SPS30;45954;49.768;8.636;2023-10-08T06:02:31;15.11;13.06;8.97;3.72;30.49;30.30;29.35;24.02;13.51;1.07
59652;SPS30;45954;49.768;8.636;2023-10-08T06:04:59;18.10;15.63;10.69;4.38;35.89;35.66;34.52;28.10;15.56;1.10
59652;SPS30;45954;49.768;8.636;2023-10-08T06:07:42;16.38;14.13;9.65;3.93;32.18;31.98;30.94;25.11;13.79;1.10
59652;SPS30;45954;49.768;8.636;2023-10-08T06:10:20;15.99;13.82;9.50;3.96;32.45;32.25;31.25;25.62;14.49;1.07
59652;SPS30;45954;49.768;8.636;2023-10-08T06:15:55;15.90;13.71;9.35;3.77;30.88;30.68;29.67;23.98;13.02;1.09
59652;SPS30;45954;49.768;8.636;2023-10-08T06:18:23;17.03;14.65;9.91;3.87;31.77;31.55;30.45;24.29;12.65;1.12
59652;SPS30;45954;49.768;8.636;2023-10-08T06:20:55;16.23;13.95;9.40;3.61;29.66;29.45;28.40;22.49;11.43;1.12
59652;SPS30;45954;49.768;8.636;2023-10-08T06:23:37;20.63;17.75;12.01;4.68;38.43;38.17;36.84;29.37;15.26;1.10
59652;SPS30;45954;49.768;8.636;2023-10-08T06:26:07;23.23;20.00;13.57;5.36;43.96;43.67;42.18;33.81;17.88;1.10
59652;SPS30;45954;49.768;8.636;2023-10-08T06:28:45;20.53;17.70;12.05;4.83;39.58;39.33;38.02;30.66;16.52;1.09
59652;SPS30;45954;49.768;8.636;2023-10-08T06:31:11;17.07;14.72;10.02;4.03;33.02;32.81;31.72;25.62;13.85;1.10
59652;SPS30;45954;49.768;8.636;2023-10-08T06:33:41;18.84;16.26;11.10;4.51;36.94;36.70;35.51;28.80;15.78;1.11
59652;SPS30;45954;49.768;8.636;2023-10-08T06:36:09;21.04;18.10;12.23;4.75;39.01;38.74;37.38;29.75;15.38;1.13
59652;SPS30;45954;49.768;8.636;2023-10-08T06:38:36;18.57;16.02;10.94;4.44;36.44;36.21;35.03;28.42;15.58;1.08
59652;SPS30;45954;49.768;8.636;2023-10-08T06:41:04;16.75;14.49;9.98;4.19;34.32;34.11;33.07;27.18;15.50;1.05
59652;SPS30;45954;49.768;8.636;2023-10-08T06:43:35;18.89;16.34;11.23;4.69;38.43;38.19;37.01;30.36;17.21;1.07
59652;SPS30;45954;49.768;8.636;2023-10-08T06:46:02;19.66;16.97;11.61;4.74;38.85;38.60;37.36;30.37;16.77;1.10
59652;SPS30;45954;49.768;8.636;2023-10-08T06:48:32;19.73;17.00;11.54;4.56;37.44;37.19;35.93;28.83;15.29;1.12
59652;SPS30;45954;49.768;8.636;2023-10-08T06:51:00;21.13;18.23;12.43;5.02;41.15;40.88;39.54;31.99;17.41;1.13
59652;SPS30;45954;49.768;8.636;2023-10-08T06:53:39;16.82;14.53;9.96;4.10;33.59;33.38;32.32;26.37;14.70;1.07
59652;SPS30;45954;49.768;8.636;2023-10-08T06:56:05;23.27;20.11;13.79;5.70;46.70;46.41;44.95;36.72;20.56;1.09
59652;SPS30;45954;49.768;8.636;2023-10-08T06:58:34;20.19;17.42;11.91;4.84;39.70;39.44;38.17;30.98;17.02;1.11
59652;SPS30;45954;49.768;8.636;2023-10-08T07:01:01;14.76;12.75;8.73;3.59;29.39;29.20;28.27;23.04;12.81;1.07
59652;SPS30;45954;49.768;8.636;2023-10-08T07:03:33;17.89;15.48;10.67;4.49;36.73;36.51;35.40;29.12;16.63;1.05
59652;SPS30;45954;49.768;8.636;2023-10-08T07:06:00;23.48;20.25;13.80;5.55;45.56;45.26;43.77;35.38;19.19;1.12
59652;SPS30;45954;49.768;8.636;2023-10-08T07:08:42;15.90;13.72;9.38;3.81;31.26;31.06;30.06;24.40;13.41;1.08
59652;SPS30;45954;49.768;8.636;2023-10-08T07:11:12;18.62;16.09;11.02;4.54;37.21;36.97;35.80;29.21;16.29;1.09
59652;SPS30;45954;49.768;8.636;2023-10-08T07:13:39;17.52;15.13;10.36;4.26;34.94;34.72;33.62;27.41;15.26;1.09
59652;SPS30;45954;49.768;8.636;2023-10-08T07:16:07;30.64;26.36;17.81;6.90;56.70;56.31;54.34;43.22;22.30;1.14
59652;SPS30;45954;49.768;8.636;2023-10-08T07:18:36;19.58;16.87;11.47;4.57;37.53;37.28;36.03;29.01;15.54;1.10
59652;SPS30;45954;49.768;8.636;2023-10-08T07:21:03;21.91;18.90;12.89;5.21;42.70;42.42;41.03;33.21;18.09;1.10
59652;SPS30;45954;49.768;8.636;2023-10-08T07:23:38;15.55;13.43;9.21;3.80;31.12;30.93;29.95;24.45;13.66;1.07
59652;SPS30;45954;49.768;8.636;2023-10-08T07:26:24;19.05;16.45;11.25;4.60;37.68;37.44;36.24;29.47;16.28;1.08
59652;SPS30;45954;49.768;8.636;2023-10-08T07:29:01;14.10;12.19;8.39;3.51;28.72;28.55;27.66;22.70;12.88;1.06
59652;SPS30;45954;49.768;8.636;2023-10-08T07:31:33;15.18;13.17;9.17;4.03;32.91;32.73;31.80;26.58;15.86;1.01
59652;SPS30;45954;49.768;8.636;2023-10-08T07:34:01;17.57;15.26;10.64;4.70;38.38;38.17;37.10;31.07;18.64;1.01
59652;SPS30;45954;49.768;8.636;2023-10-08T07:36:41;17.07;14.76;10.17;4.28;35.02;34.81;33.75;27.76;15.85;1.03
59652;SPS30;45954;49.768;8.636;2023-10-08T07:39:09;17.60;15.24;10.55;4.51;36.92;36.70;35.61;29.49;17.15;1.04
59652;SPS30;45954;49.768;8.636;2023-10-08T07:41:48;13.11;11.34;7.80;3.27;26.74;26.58;25.76;21.15;12.02;1.06
59652;SPS30;45954;49.768;8.636;2023-10-08T07:44:15;19.54;16.88;11.57;4.76;39.02;38.78;37.55;30.63;17.07;1.08
59652;SPS30;45954;49.768;8.636;2023-10-08T07:46:41;18.45;15.91;10.84;4.36;35.74;35.51;34.34;27.74;15.02;1.09
59652;SPS30;45954;49.768;8.636;2023-10-08T07:49:07;19.59;16.94;11.65;4.87;39.87;39.63;38.41;31.51;17.86;1.05
59652;SPS30;45954;49.768;8.636;2023-10-08T07:51:38;15.37;13.29;9.13;3.80;31.10;30.91;29.94;24.53;13.83;1.06
59652;SPS30;45954;49.768;8.636;2023-10-08T07:54:07;18.53;15.97;10.87;4.35;35.68;35.44;34.26;27.62;14.87;1.11
59652;SPS30;45954;49.768;8.636;2023-10-08T07:56:41;15.98;13.74;9.28;3.59;29.46;29.26;28.22;22.42;11.51;1.12
59652;SPS30;45954;49.768;8.636;2023-10-08T07:59:07;21.99;18.91;12.77;4.94;40.61;40.33;38.91;30.93;15.91;1.13
59652;SPS30;45954;49.768;8.636;2023-10-08T08:01:34;23.87;20.56;13.95;5.51;45.19;44.89;43.36;34.76;18.39;1.12
59652;SPS30;45954;49.768;8.636;2023-10-08T08:04:00;21.42;18.48;12.61;5.11;41.86;41.60;40.24;32.60;17.80;1.10
59652;SPS30;45954;49.768;8.636;2023-10-08T08:06:25;16.54;14.22;9.59;3.69;30.32;30.10;29.03;23.01;11.74;1.16
59652;SPS30;45954;49.768;8.636;2023-10-08T08:08:51;18.14;15.61;10.57;4.14;33.96;33.73;32.56;26.00;13.59;1.13
59652;SPS30;45954;49.768;8.636;2023-10-08T08:11:17;14.46;12.49;8.57;3.54;29.00;28.82;27.91;22.79;12.75;1.08
59652;SPS30;45954;49.768;8.636;2023-10-08T08:13:44;16.75;14.47;9.93;4.11;33.68;33.48;32.42;26.51;14.87;1.07
59652;SPS30;45954;49.768;8.636;2023-10-08T08:16:11;18.02;15.55;10.60;4.27;35.03;34.80;33.66;27.22;14.79;1.09
59652;SPS30;45954;49.768;8.636;2023-10-08T08:18:46;18.24;15.74;10.75;4.37;35.81;35.58;34.43;27.94;15.33;1.10
59652;SPS30;45954;49.768;8.636;2023-10-08T08:21:15;18.33;15.86;10.94;4.62;37.78;37.55;36.41;29.99;17.19;1.04
59652;SPS30;45954;49.768;8.636;2023-10-08T08:23:42;23.37;20.16;13.76;5.58;45.71;45.42;43.94;35.60;19.46;1.09
59652;SPS30;45954;49.768;8.636;2023-10-08T08:26:21;21.49;18.46;12.42;4.72;38.80;38.52;37.12;29.27;14.66;1.12
59652;SPS30;45954;49.768;8.636;2023-10-08T08:28:53;20.59;17.75;12.09;4.85;39.78;39.52;38.21;30.84;16.66;1.08
59652;SPS30;45954;49.768;8.636;2023-10-08T08:31:25;20.40;17.60;12.01;4.86;39.84;39.58;38.29;31.01;16.92;1.10
59652;SPS30;45954;49.768;8.636;2023-10-08T08:33:52;18.55;16.00;10.90;4.38;35.89;35.65;34.47;27.83;15.05;1.10
59652;SPS30;45954;49.768;8.636;2023-10-08T08:36:19;15.14;13.04;8.85;3.51;28.77;28.58;27.61;22.17;11.78;1.09
59652;SPS30;45954;49.768;8.636;2023-10-08T08:38:46;18.17;15.71;10.78;4.48;36.66;36.44;35.30;28.88;16.25;1.06
59652;SPS30;45954;49.768;8.636;2023-10-08T08:41:13;18.51;16.00;11.00;4.59;37.62;37.39;36.23;29.72;16.83;1.06
59652;SPS30;45954;49.768;8.636;2023-10-08T08:43:44;18.53;16.00;10.94;4.46;36.56;36.33;35.16;28.57;15.74;1.11
59652;SPS30;45954;49.768;8.636;2023-10-08T08:46:35;16.85;14.53;9.89;3.97;32.53;32.31;31.24;25.21;13.60;1.10
59652;SPS30;45954;49.768;8.636;2023-10-08T08:49:03;20.28;17.54;12.09;5.08;41.61;41.36;40.09;32.98;18.83;1.05
59652;SPS30;45954;49.768;8.636;2023-10-08T08:51:37;17.58;15.23;10.54;4.52;36.93;36.72;35.63;29.51;17.18;1.03
59652;SPS30;45954;49.768;8.636;2023-10-08T08:54:06;18.13;15.71;10.88;4.67;38.19;37.97;36.85;30.55;17.83;1.04
59652;SPS30;45954;49.768;8.636;2023-10-08T08:56:33;15.40;13.30;9.11;3.74;30.67;30.48;29.51;24.05;13.38;1.07
59652;SPS30;45954;49.768;8.636;2023-10-08T08:59:02;19.93;17.29;12.01;5.22;42.69;42.45;41.22;34.34;20.30;1.02
59652;SPS30;45954;49.768;8.636;2023-10-08T09:01:30;16.49;14.34;10.04;4.50;36.70;36.50;35.51;29.89;18.17;1.03
59652;SPS30;45954;49.768;8.636;2023-10-08T09:04:07;19.77;17.17;11.98;5.30;43.26;43.02;41.82;35.04;21.05;1.05
59652;SPS30;45954;49.768;8.636;2023-10-08T09:06:36;15.05;13.02;8.96;3.76;30.78;30.59;29.65;24.37;13.87;1.07
59652;SPS30;45954;49.768;8.636;2023-10-08T09:09:06;13.55;11.75;8.15;3.53;28.86;28.70;27.86;23.17;13.64;1.02
59652;SPS30;45954;49.768;8.636;2023-10-08T09:11:48;14.73;12.75;8.78;3.69;30.22;30.04;29.12;23.95;13.67;1.04
59652;SPS30;45954;49.768;8.636;2023-10-08T09:14:20;19.70;17.05;11.76;4.97;40.67;40.43;39.20;32.30;18.54;1.05
59652;SPS30;45954;49.768;8.636;2023-10-08T09:16:48;21.44;18.51;12.67;5.20;42.58;42.31;40.96;33.35;18.49;1.07
59652;SPS30;45954;49.768;8.636;2023-10-08T09:19:15;24.12;20.80;14.17;5.70;46.74;46.43;44.90;36.27;19.65;1.08
59652;SPS30;45954;49.768;8.636;2023-10-08T09:21:59;18.26;15.75;10.75;4.35;35.68;35.45;34.29;27.78;15.17;1.08
59652;SPS30;45954;49.768;8.636;2023-10-08T09:24:34;18.69;16.16;11.12;4.66;38.14;37.91;36.74;30.17;17.14;1.04
59652;SPS30;45954;49.768;8.636;2023-10-08T09:27:03;17.71;15.33;10.57;4.46;36.50;36.28;35.18;28.98;16.61;1.04